Time;durP1;ratioP1;P1;durP2;ratioP2;P2;SDS_P1;SDS_P2;PMS_P1;PMS_P2;Temp;Humidity;BMP_temperature;BMP_pressure;BME280_temperature;BME280_humidity;BME280_pressure;Samples;Min_cycle;Max_cycle;Signal;HPM_P1;HPM_P2
2022/06/21 00:00:00;;;;;;;17.15;10.10;;;;;;;10.10;86.35;101736.47;6307855;22;20086;-88
2022/06/21 00:02:25;;;;;;;19.35;11.63;;;;;;;10.10;86.89;101727.91;6281024;22;20006;-85
2022/06/21 00:04:53;;;;;;;18.63;11.30;;;;;;;10.01;87.14;101721.44;6307806;22;20014;-87
2022/06/21 00:07:23;;;;;;;18.88;11.18;;;;;;;10.03;87.17;101725.63;6307836;22;20052;-88
2022/06/21 00:09:48;;;;;;;22.60;11.65;;;;;;;9.73;87.49;101683.16;6307919;22;19999;-87
2022/06/21 00:12:14;;;;;;;17.95;11.60;;;;;;;9.96;87.49;101737.13;6280582;22;20000;-88
2022/06/21 00:14:40;;;;;;;20.35;11.20;;;;;;;9.82;86.94;101718.84;6307796;22;20025;-84
2022/06/21 00:17:19;;;;;;;20.85;11.50;;;;;;;9.38;87.09;101658.97;6307602;22;20011;-88
2022/06/21 00:19:45;;;;;;;18.52;11.77;;;;;;;9.82;87.23;101728.34;6280927;22;20007;-87
2022/06/21 00:22:21;;;;;;;19.52;11.68;;;;;;;9.87;87.23;101747.03;6307181;22;20014;-83
2022/06/21 00:24:46;;;;;;;20.05;12.27;;;;;;;9.27;88.05;101631.09;6307462;22;20057;-82
2022/06/21 00:27:18;;;;;;;23.13;11.48;;;;;;;9.88;88.10;101734.06;6307813;22;20581;-88
2022/06/21 00:29:43;;;;;;;23.10;12.57;;;;;;;9.84;87.90;101736.88;6280295;22;20030;-88
2022/06/21 00:32:14;;;;;;;18.73;12.25;;;;;;;9.61;87.68;101705.19;6307863;22;19999;-85
2022/06/21 00:34:40;;;;;;;19.73;11.20;;;;;;;9.70;87.12;101724.56;6307798;22;20010;-87
2022/06/21 00:37:13;;;;;;;21.02;11.50;;;;;;;9.72;87.93;101738.22;6307879;22;20012;-86
2022/06/21 00:39:39;;;;;;;21.65;12.00;;;;;;;9.35;88.01;101670.28;6307355;22;20074;-88
2022/06/21 00:42:17;;;;;;;19.23;12.13;;;;;;;9.67;87.72;101730.72;6307457;22;20370;-88
2022/06/21 00:44:48;;;;;;;21.00;12.38;;;;;;;9.65;88.25;101727.38;6307589;22;20421;-86
2022/06/21 00:47:22;;;;;;;18.70;12.13;;;;;;;9.67;88.19;101727.28;6307616;22;19999;-88
2022/06/21 00:49:56;;;;;;;19.60;10.98;;;;;;;9.65;87.89;101736.84;6307615;22;20010;-87
2022/06/21 00:52:56;;;;;;;19.38;11.90;;;;;;;9.59;88.19;101734.53;6307546;22;20375;-88
2022/06/21 00:55:33;;;;;;;19.13;12.32;;;;;;;9.54;88.70;101733.88;6307560;22;20007;-86
2022/06/21 00:57:59;;;;;;;19.83;11.00;;;;;;;9.39;88.66;101700.16;6307427;22;19999;-85
2022/06/21 01:00:33;;;;;;;20.08;12.75;;;;;;;9.49;88.62;101714.31;6279908;22;20093;-84
2022/06/21 01:03:03;;;;;;;19.65;11.77;;;;;;;9.37;88.66;101714.84;6307235;22;20003;-86
2022/06/21 01:05:31;;;;;;;22.50;12.88;;;;;;;9.44;89.62;101724.00;6307407;22;20007;-86
2022/06/21 01:07:58;;;;;;;19.98;12.25;;;;;;;9.30;88.90;101704.88;6307042;22;20007;-87
2022/06/21 01:10:26;;;;;;;22.92;12.32;;;;;;;9.15;88.74;101685.78;6306933;22;20004;-85
2022/06/21 01:12:53;;;;;;;28.58;12.95;;;;;;;9.38;89.41;101729.41;6306906;22;20003;-87
2022/06/21 01:15:26;;;;;;;22.33;12.60;;;;;;;9.36;89.61;101714.94;6307365;22;20010;-85
2022/06/21 01:18:03;;;;;;;21.10;12.20;;;;;;;9.34;90.28;101716.72;6306943;22;20373;-88
2022/06/21 01:20:33;;;;;;;19.83;12.88;;;;;;;9.10;89.45;101679.97;6306973;22;20003;-85
2022/06/21 01:22:58;;;;;;;20.05;12.77;;;;;;;9.29;90.01;101701.47;6306711;22;20310;-84
2022/06/21 01:25:49;;;;;;;22.45;13.88;;;;;;;9.30;90.80;101699.72;6306726;22;20052;-84
2022/06/21 01:28:15;;;;;;;24.23;12.50;;;;;;;9.29;91.00;101703.19;6306975;22;20083;-85
2022/06/21 01:30:47;;;;;;;21.92;12.60;;;;;;;8.85;89.99;101639.81;6307342;22;20035;-84
2022/06/21 01:33:15;;;;;;;22.10;12.57;;;;;;;8.79;90.06;101646.97;6306904;22;20011;-88
2022/06/21 01:35:46;;;;;;;22.13;11.82;;;;;;;8.95;89.52;101678.03;6306504;22;20038;-82
2022/06/21 01:38:16;;;;;;;20.45;12.70;;;;;;;9.06;89.73;101707.63;6307261;22;20006;-84
2022/06/21 01:40:46;;;;;;;22.42;13.48;;;;;;;8.86;90.76;101687.84;6279451;22;20003;-88
2022/06/21 01:43:19;;;;;;;24.73;13.23;;;;;;;8.99;90.13;101720.81;6306824;22;20011;-89
2022/06/21 01:45:51;;;;;;;22.33;12.30;;;;;;;8.21;90.26;101588.41;6306878;22;19999;-86
2022/06/21 01:48:27;;;;;;;24.70;13.27;;;;;;;8.97;90.69;101712.31;6307009;22;20007;-87
2022/06/21 01:50:58;;;;;;;24.33;12.65;;;;;;;8.88;90.75;101692.94;6306745;22;19999;-89
2022/06/21 01:53:26;;;;;;;27.35;13.23;;;;;;;8.99;91.67;101707.94;6307057;22;20003;-88
2022/06/21 01:55:56;;;;;;;22.85;13.13;;;;;;;8.66;91.91;101649.22;6279859;22;20007;-88
2022/06/21 01:58:30;;;;;;;18.80;12.75;;;;;;;8.91;91.31;101693.63;6306784;22;20458;-87
2022/06/21 02:01:13;;;;;;;20.60;13.43;;;;;;;8.80;91.26;101675.22;6306982;22;20007;-88
2022/06/21 02:03:40;;;;;;;19.10;12.48;;;;;;;8.58;90.84;101633.25;6306903;22;20063;-88
2022/06/21 02:06:10;;;;;;;19.95;12.63;;;;;;;8.42;90.79;101621.91;6307057;22;20008;-89
2022/06/21 02:08:54;;;;;;;18.30;12.32;;;;;;;8.60;90.32;101668.31;6306718;22;20325;-87
2022/06/21 02:11:46;;;;;;;24.08;12.68;;;;;;;8.55;90.47;101674.53;6307037;22;20077;-87
2022/06/21 02:14:29;;;;;;;20.90;11.60;;;;;;;8.40;90.15;101649.44;6305909;22;20340;-89
2022/06/21 02:17:11;;;;;;;23.95;13.25;;;;;;;8.62;90.82;101681.13;6279309;22;20003;-87
2022/06/21 02:19:43;;;;;;;;;;;;;;;8.62;89.30;101678.56;6307736;22;20121;-87
2022/06/21 02:22:17;;;;;;;22.60;11.75;;;;;;;8.54;90.81;101678.84;6281515;22;20205;-82
2022/06/21 02:24:43;;;;;;;22.73;12.43;;;;;;;8.30;91.45;101639.50;6281678;22;20367;-83
2022/06/21 02:27:10;;;;;;;27.08;12.75;;;;;;;8.53;91.74;101682.34;6308654;22;20010;-81
2022/06/21 02:29:37;;;;;;;20.45;12.48;;;;;;;7.99;91.85;101592.75;6308846;22;20070;-84
2022/06/21 02:32:06;;;;;;;19.80;12.27;;;;;;;7.99;91.74;101580.72;6308757;22;20010;-83
2022/06/21 02:34:38;;;;;;;24.52;12.60;;;;;;;8.42;91.44;101645.06;6308948;22;19999;-83
2022/06/21 02:37:04;;;;;;;21.63;12.40;;;;;;;8.24;91.54;101623.47;6281259;22;20419;-82
2022/06/21 02:39:52;;;;;;;20.35;12.82;;;;;;;8.40;91.64;101639.16;6308753;22;20321;-87
2022/06/21 02:42:35;;;;;;;21.02;12.10;;;;;;;6.90;91.12;101393.19;6281229;22;20098;-82
2022/06/21 02:45:07;;;;;;;20.50;12.55;;;;;;;7.73;90.99;101526.91;6308445;22;20006;-82
2022/06/21 02:47:39;;;;;;;20.30;11.55;;;;;;;8.16;91.61;101616.06;6308293;22;20086;-82
2022/06/21 02:50:40;;;;;;;23.95;12.95;;;;;;;8.26;91.47;101631.97;6308316;22;20091;-82
2022/06/21 02:53:14;;;;;;;21.52;11.85;;;;;;;7.92;91.03;101591.31;6308337;22;20437;-82
2022/06/21 02:55:50;;;;;;;19.52;11.95;;;;;;;7.83;91.41;101577.09;6308324;22;20394;-81
2022/06/21 02:58:22;;;;;;;22.00;12.32;;;;;;;8.17;91.25;101635.75;6308268;22;20328;-82
2022/06/21 03:00:48;;;;;;;22.75;12.32;;;;;;;8.18;91.49;101628.88;6308224;22;20325;-84
2022/06/21 03:03:18;;;;;;;22.52;13.18;;;;;;;7.88;91.75;101589.78;6308662;22;20006;-82
2022/06/21 03:05:47;;;;;;;25.85;13.15;;;;;;;8.23;92.73;101643.19;6308240;22;20499;-82
2022/06/21 03:08:13;;;;;;;21.08;13.02;;;;;;;8.00;92.42;101623.53;6308491;22;20010;-83
2022/06/21 03:10:43;;;;;;;20.42;12.73;;;;;;;8.19;92.60;101663.97;6308684;22;20082;-87
2022/06/21 03:13:14;;;;;;;23.80;12.97;;;;;;;7.83;92.73;101601.97;6308043;22;20072;-84
2022/06/21 03:15:42;;;;;;;24.05;13.30;;;;;;;8.24;92.37;101668.03;6308404;22;20332;-82
2022/06/21 03:18:11;;;;;;;28.38;14.23;;;;;;;7.65;93.07;101560.63;6308101;22;20417;-83
2022/06/21 03:20:38;;;;;;;28.33;14.13;;;;;;;7.73;93.21;101581.75;6308148;22;19999;-84
2022/06/21 03:23:07;;;;;;;23.52;14.85;;;;;;;7.65;93.38;101570.91;6280273;22;20015;-84
2022/06/21 03:25:46;;;;;;;25.05;14.52;;;;;;;8.11;93.36;101642.88;6308478;22;20007;-84
2022/06/21 03:28:45;;;;;;;25.05;15.15;;;;;;;8.36;93.10;101669.34;6308133;22;20007;-84
2022/06/21 03:31:31;;;;;;;29.42;15.85;;;;;;;8.44;94.01;101680.13;6213135;23;20009;-85
2022/06/21 03:36:51;;;;;;;28.83;16.33;;;;;;;7.24;95.53;101461.19;6273675;22;20050;-84
2022/06/21 03:42:11;;;;;;;29.35;15.93;;;;;;;8.23;94.13;101608.91;6307859;22;20026;-83
2022/06/21 03:44:45;;;;;;;31.98;16.55;;;;;;;8.23;95.28;101593.47;6308034;22;19999;-83
2022/06/21 03:47:19;;;;;;;28.25;15.35;;;;;;;8.46;94.86;101626.88;6307821;22;20053;-82
2022/06/21 03:49:55;;;;;;;26.80;15.88;;;;;;;8.47;94.67;101638.84;6307903;22;20113;-83
2022/06/21 03:52:43;;;;;;;22.30;14.38;;;;;;;8.29;93.63;101613.81;6307420;22;20489;-87
2022/06/21 03:55:35;;;;;;;29.48;15.63;;;;;;;8.41;94.10;101620.22;6307768;22;20053;-84
2022/06/21 03:58:06;;;;;;;26.30;16.48;;;;;;;8.45;94.38;101624.34;6307669;22;20000;-83
2022/06/21 04:01:10;;;;;;;28.25;15.23;;;;;;;8.47;93.72;101625.97;6308063;22;20026;-83
2022/06/21 04:03:47;;;;;;;28.20;15.38;;;;;;;7.85;93.40;101518.72;6187895;23;20066;-85
2022/06/21 04:06:23;;;;;;;29.45;16.13;;;;;;;8.50;93.42;101620.69;6213290;22;20013;-83
2022/06/21 04:08:56;;;;;;;28.60;16.30;;;;;;;7.99;93.61;101536.16;6213618;23;20012;-83
2022/06/21 04:11:28;;;;;;;25.27;15.23;;;;;;;8.07;93.22;101554.69;6213108;23;20091;-83
2022/06/21 04:14:20;;;;;;;28.40;16.33;;;;;;;8.50;93.58;101614.72;6212885;23;20138;-84
2022/06/21 04:16:54;;;;;;;30.92;16.77;;;;;;;8.42;93.70;101579.00;6183239;23;20016;-83
2022/06/21 04:19:40;;;;;;;27.33;17.00;;;;;;;8.59;93.90;101576.53;6183082;23;20034;-83
2022/06/21 04:22:16;;;;;;;24.67;15.52;;;;;;;9.26;92.84;101636.34;6182971;22;20451;-87
2022/06/21 04:24:51;;;;;;;27.95;16.92;;;;;;;10.16;89.87;101602.00;6183073;23;20033;-84
2022/06/21 04:27:52;;;;;;;28.17;16.23;;;;;;;12.20;85.42;101613.63;6183048;23;20002;-83
2022/06/21 04:30:25;;;;;;;25.00;14.43;;;;;;;13.90;75.97;101619.72;6123671;23;20006;-83
2022/06/21 04:33:03;;;;;;;32.65;13.60;;;;;;;15.56;72.82;101624.97;6123309;23;20016;-88
2022/06/21 04:36:13;;;;;;;23.80;14.23;;;;;;;16.76;70.42;101623.09;6123333;23;20069;-82
2022/06/21 04:39:00;;;;;;;20.50;13.85;;;;;;;17.40;61.50;101608.47;6044735;23;20054;-84
2022/06/21 04:41:36;;;;;;;21.83;14.20;;;;;;;18.00;61.23;101560.09;6065591;23;20045;-85
2022/06/21 04:44:09;;;;;;;28.75;13.77;;;;;;;19.12;56.57;101606.38;6064902;23;20011;-84
2022/06/21 04:46:47;;;;;;;25.92;13.73;;;;;;;19.46;57.07;101606.03;6065547;23;20174;-84
2022/06/21 04:49:21;;;;;;;24.75;13.18;;;;;;;18.99;56.46;101566.53;6065695;23;20378;-84
2022/06/21 04:51:55;;;;;;;23.63;13.77;;;;;;;18.67;56.93;101610.31;6065700;23;20094;-84
2022/06/21 04:54:29;;;;;;;19.65;13.65;;;;;;;18.24;58.09;101566.84;6086268;23;20006;-83
2022/06/21 04:57:06;;;;;;;23.67;13.25;;;;;;;17.90;58.74;101605.38;6094237;23;20437;-84
2022/06/21 04:59:42;;;;;;;19.40;13.15;;;;;;;18.82;58.09;101604.63;6093994;23;20182;-83
2022/06/21 05:02:21;;;;;;;20.88;12.20;;;;;;;19.80;55.10;101563.78;6094079;23;20330;-83
2022/06/21 05:04:51;;;;;;;20.45;11.52;;;;;;;21.24;50.96;101596.66;6136269;23;20009;-85
2022/06/21 05:07:22;;;;;;;18.55;10.75;;;;;;;21.91;49.44;101542.75;6152787;23;20016;-84
2022/06/21 05:09:51;;;;;;;18.52;11.10;;;;;;;23.15;45.25;101594.16;6128060;23;20017;-83
2022/06/21 05:12:30;;;;;;;17.58;9.45;;;;;;;23.72;46.38;101559.19;6152678;23;20493;-85
2022/06/21 05:15:03;;;;;;;16.83;8.32;;;;;;;24.19;42.55;101546.13;6204646;22;20082;-92
2022/06/21 05:17:55;;;;;;;17.55;8.77;;;;;;;24.75;44.18;101591.03;6276152;22;20050;-85
2022/06/21 05:20:26;;;;;;;17.50;8.98;;;;;;;24.79;40.51;101566.75;6275928;22;20014;-77
2022/06/21 05:22:55;;;;;;;19.73;9.18;;;;;;;24.87;40.17;101564.06;6275946;22;20003;-78
2022/06/21 05:25:40;;;;;;;15.10;7.82;;;;;;;25.24;41.45;101574.97;6276155;22;20436;-78
2022/06/21 05:28:28;;;;;;;14.40;8.00;;;;;;;25.43;39.62;101551.53;6276181;22;20007;-78
2022/06/21 05:31:37;;;;;;;22.08;7.97;;;;;;;26.26;39.69;101565.75;6275692;22;20007;-78
2022/06/21 05:34:13;;;;;;;12.52;7.22;;;;;;;26.27;37.91;101583.28;6152689;23;20075;-79
2022/06/21 05:36:49;;;;;;;18.17;7.88;;;;;;;26.12;36.58;101562.06;6161993;23;20017;-79
2022/06/21 05:39:22;;;;;;;16.63;7.35;;;;;;;26.71;35.24;101585.94;6157427;23;20013;-78
2022/06/21 05:41:52;;;;;;;14.90;7.63;;;;;;;26.66;35.92;101595.47;6182597;23;20426;-75
2022/06/21 05:44:34;;;;;;;18.67;7.68;;;;;;;26.95;37.47;101598.09;6182493;23;20458;-78
2022/06/21 05:47:42;;;;;;;15.57;7.53;;;;;;;27.39;37.00;101562.69;6182607;23;20136;-78
2022/06/21 05:50:15;;;;;;;18.58;6.57;;;;;;;27.10;35.17;101579.53;6122931;23;20021;-83
2022/06/21 05:52:48;;;;;;;17.50;6.72;;;;;;;27.12;34.53;101577.50;6123175;23;20010;-81
2022/06/21 05:55:27;;;;;;;13.45;6.78;;;;;;;27.23;34.43;101576.19;6123085;23;20107;-82
2022/06/21 05:57:54;;;;;;;16.00;6.75;;;;;;;27.01;34.18;101610.59;6123157;23;20009;-78
2022/06/21 06:00:31;;;;;;;12.75;6.60;;;;;;;26.71;36.12;101615.09;6123094;23;20011;-81
2022/06/21 06:03:23;;;;;;;12.95;6.53;;;;;;;27.38;36.03;101614.91;6097257;23;20459;-81
2022/06/21 06:05:49;;;;;;;15.10;6.75;;;;;;;27.12;34.30;101604.81;6208340;23;20032;-79
2022/06/21 06:08:29;;;;;;;12.27;5.65;;;;;;;27.16;33.94;101618.56;6212057;22;20005;-83
2022/06/21 06:10:56;;;;;;;13.18;5.20;;;;;;;26.90;34.01;101562.53;6211855;23;20005;-79
2022/06/21 06:13:29;;;;;;;10.65;5.88;;;;;;;27.19;34.07;101627.97;6212226;22;20016;-77
2022/06/21 06:16:03;;;;;;;12.50;5.90;;;;;;;26.75;34.53;101563.41;6212045;23;20008;-77
2022/06/21 06:18:53;;;;;;;12.93;6.35;;;;;;;27.67;34.04;101615.84;6212202;23;20334;-81
2022/06/21 06:21:29;;;;;;;15.18;5.50;;;;;;;28.32;32.30;101587.38;6233326;22;20018;-78
2022/06/21 06:24:18;;;;;;;9.77;4.88;;;;;;;28.95;32.23;101654.59;6307285;22;20011;-82
2022/06/21 06:26:46;;;;;;;13.40;4.78;;;;;;;28.75;30.12;101644.66;6307027;22;20014;-82
2022/06/21 06:29:29;;;;;;;12.20;4.20;;;;;;;29.20;33.07;101644.25;6306609;22;20384;-82
2022/06/21 06:32:06;;;;;;;12.57;5.05;;;;;;;29.05;31.77;101645.25;6306472;22;20003;-80
2022/06/21 06:34:39;;;;;;;12.02;5.13;;;;;;;29.00;31.36;101657.47;6306785;22;19999;-79
2022/06/21 06:37:19;;;;;;;11.27;4.32;;;;;;;28.77;31.46;101607.25;6306414;22;20011;-81
2022/06/21 06:39:45;;;;;;;11.43;5.50;;;;;;;29.31;30.41;101644.53;6306964;22;20359;-80
2022/06/21 06:42:15;;;;;;;11.15;4.60;;;;;;;29.49;30.42;101592.59;6306895;22;20117;-81
2022/06/21 06:44:49;;;;;;;10.57;4.47;;;;;;;29.29;30.51;101617.28;6306258;22;20101;-78
2022/06/21 06:47:28;;;;;;;10.52;4.30;;;;;;;29.42;29.01;101632.47;6306942;22;20056;-80
2022/06/21 06:50:05;;;;;;;12.05;4.47;;;;;;;29.61;29.13;101645.03;6306820;22;20007;-79
2022/06/21 06:52:35;;;;;;;11.13;4.03;;;;;;;29.93;28.88;101653.25;6306613;22;20026;-79
2022/06/21 06:55:15;;;;;;;;;;;;;;;30.68;30.54;101651.16;6307245;22;20007;-79
2022/06/21 06:57:49;;;;;;;12.60;4.55;;;;;;;29.22;29.74;101651.03;6306732;22;19907;-80
2022/06/21 07:00:17;;;;;;;8.98;3.85;;;;;;;29.01;30.65;101653.84;6306330;22;20018;-81
2022/06/21 07:02:49;;;;;;;10.13;4.30;;;;;;;28.85;30.29;101649.63;6306662;22;20082;-81
2022/06/21 07:05:24;;;;;;;10.73;4.38;;;;;;;28.62;31.30;101655.22;6306494;22;20010;-76
2022/06/21 07:07:58;;;;;;;7.90;3.70;;;;;;;28.82;32.03;101661.47;6308358;22;20007;-78
2022/06/21 07:10:26;;;;;;;11.25;4.13;;;;;;;28.71;31.03;101616.84;6280816;22;20091;-80
2022/06/21 07:12:53;;;;;;;10.95;4.38;;;;;;;28.93;30.72;101656.66;6308042;22;20007;-80
2022/06/21 07:15:27;;;;;;;14.52;4.40;;;;;;;28.73;30.04;101657.34;6308289;22;20057;-81
2022/06/21 07:17:57;;;;;;;10.27;4.38;;;;;;;28.28;30.49;101648.88;6308311;22;20061;-81
2022/06/21 07:20:45;;;;;;;11.95;4.40;;;;;;;28.45;31.73;101654.72;6308489;22;20010;-81
2022/06/21 07:23:21;;;;;;;8.90;4.22;;;;;;;27.87;31.13;101624.00;6308407;22;20003;-82
2022/06/21 07:25:54;;;;;;;9.65;3.78;;;;;;;27.68;31.13;101618.31;6307884;22;20306;-81
2022/06/21 07:28:22;;;;;;;9.57;3.90;;;;;;;27.66;31.30;101636.25;6308094;22;20007;-80
2022/06/21 07:30:51;;;;;;;9.43;4.03;;;;;;;27.36;31.49;101632.84;6308185;22;20007;-81
2022/06/21 07:33:25;;;;;;;11.18;3.50;;;;;;;27.38;32.97;101632.66;6307694;22;20435;-80
2022/06/21 07:36:04;;;;;;;12.13;3.55;;;;;;;27.18;32.24;101602.44;6308392;22;19999;-79
2022/06/21 07:38:53;;;;;;;7.03;3.53;;;;;;;27.47;32.46;101644.81;6307816;22;20343;-82
2022/06/21 07:41:29;;;;;;;8.93;4.05;;;;;;;27.03;32.96;101627.16;6307877;22;20011;-81
2022/06/21 07:43:59;;;;;;;10.02;4.18;;;;;;;26.28;34.80;101643.19;6307932;22;20049;-79
2022/06/21 07:46:34;;;;;;;11.38;4.10;;;;;;;25.19;36.16;101643.41;6308118;22;20320;-81
2022/06/21 07:49:14;;;;;;;8.25;3.40;;;;;;;23.97;37.52;101641.78;6308156;22;20007;-82
2022/06/21 07:51:45;;;;;;;14.60;4.23;;;;;;;23.21;40.25;101640.13;6308294;22;19999;-82
2022/06/21 07:54:15;;;;;;;8.95;3.83;;;;;;;22.88;40.23;101647.06;6307807;22;20057;-80
2022/06/21 07:56:43;;;;;;;11.63;4.60;;;;;;;22.49;41.85;101644.81;6307656;22;20336;-79
2022/06/21 07:59:24;;;;;;;11.23;4.85;;;;;;;22.25;42.97;101647.28;6307463;22;20009;-81
2022/06/21 08:07:37;;;;;;;12.05;4.28;;;;;;;21.52;43.76;101579.06;6307967;22;20045;-82
2022/06/21 08:10:34;;;;;;;13.23;4.82;;;;;;;21.75;42.92;101614.47;6307441;22;20003;-80
2022/06/21 08:12:59;;;;;;;11.85;4.30;;;;;;;21.39;43.52;101608.34;6305949;22;20011;-81
2022/06/21 08:15:39;;;;;;;10.40;4.15;;;;;;;21.32;44.97;101622.19;6307691;22;20052;-78
2022/06/21 08:18:12;;;;;;;10.88;5.45;;;;;;;20.99;45.53;101618.34;6307812;22;20007;-83
2022/06/21 08:20:57;;;;;;;14.82;4.78;;;;;;;20.77;45.65;101590.66;6307758;22;19999;-80
2022/06/21 08:23:26;;;;;;;15.48;5.00;;;;;;;20.91;47.12;101588.38;6307314;22;20027;-89
2022/06/21 08:26:10;;;;;;;12.82;5.78;;;;;;;21.07;46.42;101619.28;6307736;22;20007;-83
2022/06/21 08:28:44;;;;;;;13.80;6.22;;;;;;;20.81;46.87;101589.41;6307966;22;20003;-81
2022/06/21 08:31:14;;;;;;;14.52;5.20;;;;;;;20.95;47.18;101622.25;6279292;22;20015;-80
2022/06/21 08:33:46;;;;;;;12.10;4.82;;;;;;;20.75;47.09;101548.00;6279720;22;20011;-80
2022/06/21 08:36:18;;;;;;;10.88;4.13;;;;;;;20.72;44.89;101541.22;6307811;22;20016;-80
2022/06/21 08:38:49;;;;;;;10.25;4.85;;;;;;;20.84;44.77;101566.31;6280037;22;20302;-78
2022/06/21 08:41:52;;;;;;;13.20;5.47;;;;;;;20.72;47.02;101580.59;6280035;22;20460;-80
2022/06/21 08:45:40;;;;;;;9.25;4.45;;;;;;;20.99;47.27;101594.72;6307088;22;20038;-80
2022/06/21 08:48:20;;;;;;;11.30;5.22;;;;;;;20.97;46.14;101568.59;6306910;22;20015;-78
2022/06/21 08:51:04;;;;;;;11.50;5.97;;;;;;;21.02;45.64;101599.66;6307113;22;20444;-80
2022/06/21 08:53:40;;;;;;;10.52;5.63;;;;;;;21.15;47.25;101592.28;6280075;22;20014;-80
2022/06/21 08:56:37;;;;;;;12.05;4.88;;;;;;;21.34;44.85;101571.19;6306925;22;20045;-81
2022/06/21 08:59:18;;;;;;;13.32;5.50;;;;;;;21.42;46.07;101547.59;6307098;22;19999;-82
2022/06/21 09:02:06;;;;;;;12.48;5.25;;;;;;;21.72;45.03;101561.34;6306970;22;20078;-79
2022/06/21 09:04:48;;;;;;;12.68;4.53;;;;;;;21.78;43.90;101547.59;6307029;22;20336;-76
2022/06/21 09:07:22;;;;;;;;;;;;;;;21.79;44.62;101537.91;6307216;22;20011;-81
2022/06/21 09:10:00;;;;;;;15.95;6.85;;;;;;;21.38;45.31;101532.28;6280232;22;19915;-80
2022/06/21 09:12:30;;;;;;;12.63;7.28;;;;;;;21.31;45.40;101545.19;6307088;22;20313;-80
2022/06/21 09:15:14;;;;;;;10.57;5.27;;;;;;;21.28;46.16;101552.56;6307203;22;20026;-82
2022/06/21 09:17:54;;;;;;;13.85;5.97;;;;;;;20.99;43.86;101552.69;6306964;22;20268;-80
2022/06/21 09:20:32;;;;;;;12.27;6.50;;;;;;;20.91;46.60;101543.75;6307061;22;20006;-79
2022/06/21 09:23:08;;;;;;;12.23;6.32;;;;;;;21.22;43.95;101542.59;6279033;22;20068;-81
2022/06/21 09:25:43;;;;;;;11.82;5.95;;;;;;;21.46;43.09;101535.81;6307005;22;20006;-81
2022/06/21 09:28:30;;;;;;;13.95;7.05;;;;;;;21.31;43.20;101508.41;6307002;22;20152;-82
2022/06/21 09:31:02;;;;;;;13.68;6.18;;;;;;;21.44;43.87;101514.13;6279804;22;20073;-80
2022/06/21 09:34:06;;;;;;;15.07;7.25;;;;;;;21.55;43.73;101531.47;6306774;22;20007;-80
2022/06/21 09:36:37;;;;;;;12.85;5.90;;;;;;;21.67;43.40;101526.81;6306659;22;20034;-81
2022/06/21 09:39:18;;;;;;;12.27;6.15;;;;;;;21.77;43.58;101520.47;6306883;22;20032;-79
2022/06/21 09:41:54;;;;;;;16.10;7.55;;;;;;;21.77;43.05;101491.56;6307133;22;20324;-86
2022/06/21 09:44:31;;;;;;;14.93;7.25;;;;;;;21.90;43.64;101514.81;6279081;22;20445;-80
2022/06/21 09:47:06;;;;;;;14.23;6.93;;;;;;;21.92;45.12;101515.47;6306862;22;20006;-81
2022/06/21 09:50:14;;;;;;;16.33;6.32;;;;;;;21.79;45.00;101499.28;6306735;22;20006;-81
2022/06/21 09:53:04;;;;;;;13.02;6.60;;;;;;;21.84;44.08;101514.63;6306871;22;19999;-84
2022/06/21 09:55:53;;;;;;;13.07;5.85;;;;;;;21.86;45.16;101517.91;6306739;22;20007;-83
2022/06/21 09:58:46;;;;;;;12.98;6.20;;;;;;;21.75;43.73;101511.09;6278856;22;20003;-84
2022/06/21 10:01:22;;;;;;;15.35;7.30;;;;;;;21.68;44.14;101491.66;6306626;22;20011;-84
2022/06/21 10:03:57;;;;;;;17.30;6.60;;;;;;;21.63;44.06;101473.72;6307012;22;20007;-83
2022/06/21 10:07:04;;;;;;;11.75;5.68;;;;;;;21.49;45.12;101463.75;6306802;22;20007;-78
2022/06/21 10:10:01;;;;;;;14.13;6.65;;;;;;;20.64;43.99;101336.41;6306820;22;20060;-84
2022/06/21 10:12:49;;;;;;;13.00;5.57;;;;;;;21.59;43.33;101489.94;6306424;22;19999;-84
2022/06/21 10:15:46;;;;;;;13.15;6.25;;;;;;;21.33;43.31;101474.91;6306094;22;20015;-87
2022/06/21 10:18:14;;;;;;;11.40;5.93;;;;;;;21.33;43.55;101513.50;6279325;22;20039;-87
2022/06/21 10:20:58;;;;;;;12.07;5.40;;;;;;;21.27;44.52;101507.06;6306766;22;20358;-87
2022/06/21 10:24:07;;;;;;;12.02;6.00;;;;;;;21.02;43.76;101437.69;6306965;22;20329;-84
2022/06/21 10:30:41;;;;;;;15.32;5.75;;;;;;;21.13;45.26;101371.78;6306548;22;20018;-84
2022/06/21 10:33:47;;;;;;;12.82;6.10;;;;;;;22.32;44.44;101514.97;6305815;22;19999;-84
2022/06/21 10:36:37;;;;;;;13.52;5.75;;;;;;;22.36;43.45;101510.19;6306965;22;20008;-83
2022/06/21 10:39:23;;;;;;;13.70;6.07;;;;;;;22.54;43.01;101516.22;6306726;22;20003;-86
2022/06/21 10:44:54;;;;;;;11.80;5.63;;;;;;;22.77;40.10;101513.81;6308487;22;20014;-86
2022/06/21 10:47:59;;;;;;;12.27;5.30;;;;;;;22.59;40.90;101505.19;6308453;22;20004;-85
2022/06/21 10:50:39;;;;;;;11.90;4.70;;;;;;;22.79;42.06;101511.84;6280137;22;20011;-85
2022/06/21 10:53:14;;;;;;;10.17;4.77;;;;;;;22.56;41.88;101474.75;6308419;22;20010;-85
2022/06/21 10:57:09;;;;;;;11.75;5.05;;;;;;;22.97;40.93;101521.50;6308361;22;20241;-85
2022/06/21 11:01:16;;;;;;;10.40;4.93;;;;;;;22.34;39.84;101383.22;6280199;22;20432;-84
2022/06/21 11:02:40;;;;;;;13.60;4.78;;;;;;;23.25;38.83;101519.41;6094931;23;20010;-84
2022/06/21 11:05:34;;;;;;;9.07;4.60;;;;;;;23.16;39.19;101515.94;6037343;23;20430;-85
2022/06/21 11:08:39;;;;;;;10.65;4.53;;;;;;;22.92;39.93;101510.63;6038084;23;20437;-85
2022/06/21 11:11:18;;;;;;;11.02;4.28;;;;;;;22.56;40.58;101464.22;6037803;23;20011;-85
2022/06/21 11:13:48;;;;;;;11.63;4.78;;;;;;;22.66;39.87;101479.06;6037379;23;20011;-84
2022/06/21 11:16:55;;;;;;;10.57;4.30;;;;;;;22.78;41.54;101475.16;6037591;23;20011;-85
2022/06/21 11:19:20;;;;;;;9.90;4.47;;;;;;;23.15;39.31;101506.38;5980842;24;20505;-84
2022/06/21 11:22:11;;;;;;;9.70;4.30;;;;;;;23.07;40.57;101509.00;5981075;24;20091;-85
2022/06/21 11:24:57;;;;;;;8.80;3.83;;;;;;;22.90;40.67;101481.78;5981076;24;20043;-86
2022/06/21 11:27:30;;;;;;;7.60;3.78;;;;;;;23.16;39.14;101510.66;5981033;24;20012;-79
2022/06/21 11:30:06;;;;;;;9.60;4.15;;;;;;;23.09;38.30;101507.84;5980966;24;20073;-86
2022/06/21 11:32:47;;;;;;;16.70;4.32;;;;;;;23.15;39.12;101499.31;5980738;24;20009;-80
2022/06/21 11:35:17;;;;;;;6.15;2.85;;;;;;;23.14;40.09;101499.47;6002462;23;20094;-76
2022/06/21 11:38:19;;;;;;;10.50;3.50;;;;;;;23.10;40.01;101493.69;6107618;23;20010;-83
2022/06/21 11:41:00;;;;;;;10.10;3.40;;;;;;;23.20;38.59;101509.34;6153480;23;20005;-80
2022/06/21 11:43:52;;;;;;;10.52;3.60;;;;;;;23.24;38.51;101509.84;6213437;23;20031;-79
2022/06/21 11:46:35;;;;;;;11.43;3.55;;;;;;;23.12;39.07;101507.53;6213352;23;20091;-79
2022/06/21 11:49:25;;;;;;;8.65;2.90;;;;;;;23.11;39.80;101497.16;6213089;23;20062;-80
2022/06/21 11:52:28;;;;;;;7.00;3.03;;;;;;;23.10;38.62;101506.03;6212936;23;20016;-80
2022/06/21 11:55:18;;;;;;;8.27;3.22;;;;;;;22.95;39.24;101502.41;6213017;23;20009;-83
2022/06/21 11:57:52;;;;;;;14.07;3.22;;;;;;;23.03;39.57;101494.50;6307329;22;20053;-75
2022/06/21 12:00:25;;;;;;;8.68;3.45;;;;;;;22.89;38.72;101488.88;6307289;22;20361;-83
2022/06/21 12:02:56;;;;;;;9.75;2.95;;;;;;;22.88;40.81;101483.75;6307374;22;20031;-84
2022/06/21 12:05:51;;;;;;;5.82;2.63;;;;;;;22.92;39.69;101481.66;6307264;22;20011;-80
2022/06/21 12:08:16;;;;;;;11.23;3.08;;;;;;;22.89;39.17;101478.31;6307349;22;20003;-76
2022/06/21 12:11:08;;;;;;;6.63;2.80;;;;;;;22.95;38.88;101458.44;6307537;22;20497;-79
2022/06/21 12:13:43;;;;;;;6.22;2.30;;;;;;;22.94;40.05;101441.00;6306870;22;20010;-82
2022/06/21 12:16:34;;;;;;;9.63;2.67;;;;;;;23.38;37.21;101474.94;6307462;22;20004;-84
2022/06/21 12:19:07;;;;;;;7.60;2.33;;;;;;;23.33;38.52;101450.91;6307290;22;20088;-79
2022/06/21 12:21:40;;;;;;;7.35;1.65;;;;;;;23.64;37.44;101469.53;6306963;22;20003;-80
2022/06/21 12:24:12;;;;;;;7.72;1.90;;;;;;;23.59;37.56;101442.81;6307845;22;20428;-84
2022/06/21 12:26:38;;;;;;;4.93;1.95;;;;;;;23.83;35.98;101439.34;6307450;22;20037;-78